Portada
METAR-TAF:

METAR-TAF

Aeroports :

Màlaga, Espanya

latitud: 36-40N, longitud: 004-29W, altitud: 16 m

Observació

L'informe es va fer fa 15 minuts, a les 07:30 UTC
Vent 3 kt del Oest/Nord-Oest, variant entre Oest i Nord
Temperatura 22°C
Humitat 94%
Pressió 1014 hPa
Visibilitat: 8000 m
Núvols disperses a una alçada de 1000 ft
Cel ennuvolat a una alçada de 3000 ft

METAR: LEMG 210730Z 29003KT 260V010 8000 SCT010 BKN030 22/21 Q1014 NOSIG

Hora: 09:45 (07:45 UTC)

Pronòstic

L'informe es va fer fa 2 hores i 45 minuts, a les 05:00 UTC
Pronòstic vàlid del 21 a les 06 UTC al 22 a les 06 UTC
Vent 3 kt amb direcció variable
Visibilitat 10 km o més
Núvols disperses a una alçada de 3000 ft
Evolucionant progressivament
l' 21 a les 10 UTC al 21 a les 12 UTC
Vent 8 kt del Sud
Evolucionant progressivament
l' 21 a les 19 UTC al 21 a les 21 UTC
Vent 6 kt del Oest/Nord-Oest

TAF: LEMG 210500Z 2106/2206 VRB03KT 9999 SCT030 TX26/2113Z TN21/2106Z BECMG 2110/2112 17008KT BECMG 2119/2121 29006KT

Observacions i pronòstics meteorològics de més de 4000 aeroports (METAR i TAF).

Les estacions disponibles són els punts grocs i vermells al mapa.

Posi el ratolí al punt desitjat per veure el nom de l'estació.

Feu clic per veure les observacions i els pronòstics meteorològics.

Per canviar el mapa: feu clic els botons verds amb una creu de color negre per apropar; al botó verd amb un guió per allunyar la imatge; o en les fletxes verdes per a mapes adjacents.


METAR-TAF: